sensor_id;sensor_type;location;lat;lon;timestamp;P1;durP1;ratioP1;P2;durP2;ratioP2
19804;SDS011;10062;51.052;13.756;2024-01-07T00:02:02;29.53;;;14.37;;
19804;SDS011;10062;51.052;13.756;2024-01-07T00:04:34;25.40;;;14.13;;
19804;SDS011;10062;51.052;13.756;2024-01-07T00:07:07;24.77;;;13.20;;
19804;SDS011;10062;51.052;13.756;2024-01-07T00:09:38;31.03;;;15.87;;
19804;SDS011;10062;51.052;13.756;2024-01-07T00:12:10;32.37;;;14.00;;
19804;SDS011;10062;51.052;13.756;2024-01-07T00:14:43;31.50;;;13.73;;
19804;SDS011;10062;51.052;13.756;2024-01-07T00:17:14;30.27;;;15.43;;
19804;SDS011;10062;51.052;13.756;2024-01-07T00:19:46;36.43;;;15.50;;
19804;SDS011;10062;51.052;13.756;2024-01-07T00:22:18;38.20;;;14.87;;
19804;SDS011;10062;51.052;13.756;2024-01-07T00:24:50;30.40;;;14.40;;
19804;SDS011;10062;51.052;13.756;2024-01-07T00:27:22;26.00;;;13.70;;
19804;SDS011;10062;51.052;13.756;2024-01-07T00:29:55;34.10;;;14.77;;
19804;SDS011;10062;51.052;13.756;2024-01-07T00:32:27;30.47;;;15.00;;
19804;SDS011;10062;51.052;13.756;2024-01-07T00:34:59;28.83;;;14.17;;
19804;SDS011;10062;51.052;13.756;2024-01-07T00:37:31;29.33;;;13.20;;
19804;SDS011;10062;51.052;13.756;2024-01-07T00:40:05;23.23;;;11.93;;
19804;SDS011;10062;51.052;13.756;2024-01-07T00:42:38;29.87;;;12.70;;
19804;SDS011;10062;51.052;13.756;2024-01-07T00:45:11;23.20;;;12.57;;
19804;SDS011;10062;51.052;13.756;2024-01-07T00:47:42;24.97;;;10.27;;
19804;SDS011;10062;51.052;13.756;2024-01-07T00:50:14;25.77;;;12.90;;
19804;SDS011;10062;51.052;13.756;2024-01-07T00:52:46;26.37;;;13.00;;
19804;SDS011;10062;51.052;13.756;2024-01-07T00:55:17;30.70;;;14.00;;
19804;SDS011;10062;51.052;13.756;2024-01-07T00:57:49;25.27;;;13.73;;
19804;SDS011;10062;51.052;13.756;2024-01-07T01:00:23;24.63;;;13.67;;
19804;SDS011;10062;51.052;13.756;2024-01-07T01:02:55;26.53;;;14.17;;
19804;SDS011;10062;51.052;13.756;2024-01-07T01:05:26;30.93;;;13.70;;
19804;SDS011;10062;51.052;13.756;2024-01-07T01:07:58;28.40;;;13.60;;
19804;SDS011;10062;51.052;13.756;2024-01-07T01:10:30;28.57;;;13.97;;
19804;SDS011;10062;51.052;13.756;2024-01-07T01:13:01;21.33;;;9.73;;
19804;SDS011;10062;51.052;13.756;2024-01-07T01:15:35;27.40;;;13.27;;
19804;SDS011;10062;51.052;13.756;2024-01-07T01:18:06;26.83;;;11.67;;
19804;SDS011;10062;51.052;13.756;2024-01-07T01:20:38;33.30;;;13.93;;
19804;SDS011;10062;51.052;13.756;2024-01-07T01:23:11;30.73;;;12.87;;
19804;SDS011;10062;51.052;13.756;2024-01-07T01:25:42;31.67;;;14.50;;
19804;SDS011;10062;51.052;13.756;2024-01-07T01:28:14;29.40;;;14.30;;
19804;SDS011;10062;51.052;13.756;2024-01-07T01:30:47;25.47;;;13.63;;
19804;SDS011;10062;51.052;13.756;2024-01-07T01:33:19;27.03;;;12.90;;
19804;SDS011;10062;51.052;13.756;2024-01-07T01:35:50;29.83;;;14.33;;
19804;SDS011;10062;51.052;13.756;2024-01-07T01:38:22;36.70;;;16.93;;
19804;SDS011;10062;51.052;13.756;2024-01-07T01:40:53;26.20;;;12.77;;
19804;SDS011;10062;51.052;13.756;2024-01-07T01:43:26;28.23;;;13.83;;
19804;SDS011;10062;51.052;13.756;2024-01-07T01:46:00;26.57;;;12.30;;
19804;SDS011;10062;51.052;13.756;2024-01-07T01:48:32;26.73;;;13.13;;
19804;SDS011;10062;51.052;13.756;2024-01-07T01:51:06;17.37;;;8.33;;
19804;SDS011;10062;51.052;13.756;2024-01-07T01:53:38;28.27;;;14.67;;
19804;SDS011;10062;51.052;13.756;2024-01-07T01:56:10;28.83;;;13.13;;
19804;SDS011;10062;51.052;13.756;2024-01-07T01:58:42;30.73;;;13.80;;
19804;SDS011;10062;51.052;13.756;2024-01-07T02:01:15;29.20;;;14.70;;
19804;SDS011;10062;51.052;13.756;2024-01-07T02:03:47;32.07;;;12.13;;
19804;SDS011;10062;51.052;13.756;2024-01-07T02:06:19;24.30;;;13.27;;
19804;SDS011;10062;51.052;13.756;2024-01-07T02:08:51;35.57;;;13.20;;
19804;SDS011;10062;51.052;13.756;2024-01-07T02:11:23;33.00;;;14.13;;
19804;SDS011;10062;51.052;13.756;2024-01-07T02:13:55;26.90;;;12.03;;
19804;SDS011;10062;51.052;13.756;2024-01-07T02:16:28;33.03;;;14.10;;
19804;SDS011;10062;51.052;13.756;2024-01-07T02:19:00;26.67;;;13.23;;
19804;SDS011;10062;51.052;13.756;2024-01-07T02:21:32;28.37;;;13.13;;
19804;SDS011;10062;51.052;13.756;2024-01-07T02:24:05;27.13;;;14.40;;
19804;SDS011;10062;51.052;13.756;2024-01-07T02:26:45;26.50;;;11.97;;
19804;SDS011;10062;51.052;13.756;2024-01-07T02:29:17;26.40;;;14.77;;
19804;SDS011;10062;51.052;13.756;2024-01-07T02:31:49;29.97;;;13.50;;
19804;SDS011;10062;51.052;13.756;2024-01-07T02:34:20;13.73;;;6.97;;
19804;SDS011;10062;51.052;13.756;2024-01-07T02:36:52;36.37;;;14.53;;
19804;SDS011;10062;51.052;13.756;2024-01-07T02:39:26;28.33;;;12.93;;
19804;SDS011;10062;51.052;13.756;2024-01-07T02:41:57;30.80;;;11.93;;
19804;SDS011;10062;51.052;13.756;2024-01-07T02:44:29;24.77;;;10.90;;
19804;SDS011;10062;51.052;13.756;2024-01-07T02:47:01;19.53;;;10.50;;
19804;SDS011;10062;51.052;13.756;2024-01-07T02:49:33;19.83;;;8.17;;
19804;SDS011;10062;51.052;13.756;2024-01-07T02:52:05;6.80;;;3.13;;
19804;SDS011;10062;51.052;13.756;2024-01-07T02:54:38;28.37;;;14.83;;
19804;SDS011;10062;51.052;13.756;2024-01-07T02:57:10;25.97;;;13.03;;
19804;SDS011;10062;51.052;13.756;2024-01-07T02:59:41;24.93;;;11.20;;
19804;SDS011;10062;51.052;13.756;2024-01-07T03:02:13;22.73;;;12.67;;
19804;SDS011;10062;51.052;13.756;2024-01-07T03:04:45;27.13;;;10.93;;
19804;SDS011;10062;51.052;13.756;2024-01-07T03:07:16;24.03;;;9.30;;
19804;SDS011;10062;51.052;13.756;2024-01-07T03:09:49;16.77;;;6.40;;
19804;SDS011;10062;51.052;13.756;2024-01-07T03:12:21;26.30;;;12.50;;
19804;SDS011;10062;51.052;13.756;2024-01-07T03:14:53;12.90;;;7.13;;
19804;SDS011;10062;51.052;13.756;2024-01-07T03:17:24;21.10;;;10.87;;
19804;SDS011;10062;51.052;13.756;2024-01-07T03:19:56;21.10;;;10.50;;
19804;SDS011;10062;51.052;13.756;2024-01-07T03:22:28;26.77;;;10.90;;
19804;SDS011;10062;51.052;13.756;2024-01-07T03:25:01;25.00;;;10.40;;
19804;SDS011;10062;51.052;13.756;2024-01-07T03:27:33;15.73;;;7.27;;
19804;SDS011;10062;51.052;13.756;2024-01-07T03:30:05;15.87;;;8.03;;
19804;SDS011;10062;51.052;13.756;2024-01-07T03:32:38;19.70;;;10.87;;
19804;SDS011;10062;51.052;13.756;2024-01-07T03:35:09;22.30;;;10.23;;
19804;SDS011;10062;51.052;13.756;2024-01-07T03:37:41;21.50;;;10.33;;
19804;SDS011;10062;51.052;13.756;2024-01-07T03:40:15;12.83;;;5.60;;
19804;SDS011;10062;51.052;13.756;2024-01-07T03:42:46;25.27;;;12.07;;
19804;SDS011;10062;51.052;13.756;2024-01-07T03:45:18;16.23;;;7.07;;
19804;SDS011;10062;51.052;13.756;2024-01-07T03:47:50;17.93;;;9.07;;
19804;SDS011;10062;51.052;13.756;2024-01-07T03:50:22;26.20;;;10.73;;
19804;SDS011;10062;51.052;13.756;2024-01-07T03:52:53;22.00;;;11.67;;
19804;SDS011;10062;51.052;13.756;2024-01-07T03:55:26;21.23;;;9.73;;
19804;SDS011;10062;51.052;13.756;2024-01-07T03:57:58;22.43;;;10.57;;
19804;SDS011;10062;51.052;13.756;2024-01-07T04:00:29;29.90;;;10.73;;
19804;SDS011;10062;51.052;13.756;2024-01-07T04:03:01;21.80;;;9.80;;
19804;SDS011;10062;51.052;13.756;2024-01-07T04:05:33;19.27;;;9.53;;
19804;SDS011;10062;51.052;13.756;2024-01-07T04:08:05;24.97;;;12.27;;
19804;SDS011;10062;51.052;13.756;2024-01-07T04:10:38;23.97;;;11.87;;
19804;SDS011;10062;51.052;13.756;2024-01-07T04:13:10;24.57;;;11.50;;
19804;SDS011;10062;51.052;13.756;2024-01-07T04:15:41;21.27;;;11.60;;
19804;SDS011;10062;51.052;13.756;2024-01-07T04:18:13;21.03;;;9.43;;
19804;SDS011;10062;51.052;13.756;2024-01-07T04:20:45;19.07;;;9.37;;
19804;SDS011;10062;51.052;13.756;2024-01-07T04:23:16;30.30;;;12.73;;
19804;SDS011;10062;51.052;13.756;2024-01-07T04:25:49;23.87;;;10.57;;
19804;SDS011;10062;51.052;13.756;2024-01-07T04:28:21;24.07;;;10.70;;
19804;SDS011;10062;51.052;13.756;2024-01-07T04:30:52;20.20;;;10.37;;
19804;SDS011;10062;51.052;13.756;2024-01-07T04:33:24;23.13;;;11.03;;
19804;SDS011;10062;51.052;13.756;2024-01-07T04:35:56;27.77;;;12.23;;
19804;SDS011;10062;51.052;13.756;2024-01-07T04:38:29;19.50;;;10.10;;
19804;SDS011;10062;51.052;13.756;2024-01-07T04:41:02;24.60;;;10.50;;
19804;SDS011;10062;51.052;13.756;2024-01-07T04:43:34;19.47;;;10.73;;
19804;SDS011;10062;51.052;13.756;2024-01-07T04:46:05;27.43;;;12.90;;
19804;SDS011;10062;51.052;13.756;2024-01-07T04:48:37;16.17;;;6.33;;
19804;SDS011;10062;51.052;13.756;2024-01-07T04:51:08;17.93;;;9.57;;
19804;SDS011;10062;51.052;13.756;2024-01-07T04:53:40;24.20;;;10.77;;
19804;SDS011;10062;51.052;13.756;2024-01-07T04:56:13;21.93;;;10.27;;
19804;SDS011;10062;51.052;13.756;2024-01-07T04:58:45;20.57;;;11.53;;
19804;SDS011;10062;51.052;13.756;2024-01-07T05:01:16;15.27;;;7.13;;
19804;SDS011;10062;51.052;13.756;2024-01-07T05:03:48;20.87;;;11.17;;
19804;SDS011;10062;51.052;13.756;2024-01-07T05:06:20;20.37;;;11.10;;
19804;SDS011;10062;51.052;13.756;2024-01-07T05:08:51;21.23;;;10.07;;
19804;SDS011;10062;51.052;13.756;2024-01-07T05:11:24;21.57;;;8.60;;
19804;SDS011;10062;51.052;13.756;2024-01-07T05:13:56;13.83;;;7.20;;
19804;SDS011;10062;51.052;13.756;2024-01-07T05:16:27;19.03;;;9.70;;
19804;SDS011;10062;51.052;13.756;2024-01-07T05:18:59;18.63;;;10.30;;
19804;SDS011;10062;51.052;13.756;2024-01-07T05:21:31;18.53;;;7.70;;
19804;SDS011;10062;51.052;13.756;2024-01-07T05:24:03;7.40;;;4.57;;
19804;SDS011;10062;51.052;13.756;2024-01-07T05:26:39;24.17;;;9.77;;
19804;SDS011;10062;51.052;13.756;2024-01-07T05:29:12;16.77;;;7.43;;
19804;SDS011;10062;51.052;13.756;2024-01-07T05:31:43;15.43;;;7.80;;
19804;SDS011;10062;51.052;13.756;2024-01-07T05:34:15;14.53;;;7.43;;
19804;SDS011;10062;51.052;13.756;2024-01-07T05:36:47;21.77;;;8.07;;
19804;SDS011;10062;51.052;13.756;2024-01-07T05:39:18;19.50;;;9.00;;
19804;SDS011;10062;51.052;13.756;2024-01-07T05:41:51;18.10;;;8.13;;
19804;SDS011;10062;51.052;13.756;2024-01-07T05:44:23;15.00;;;8.60;;
19804;SDS011;10062;51.052;13.756;2024-01-07T05:46:54;22.90;;;8.80;;
19804;SDS011;10062;51.052;13.756;2024-01-07T05:49:26;20.13;;;7.80;;
19804;SDS011;10062;51.052;13.756;2024-01-07T05:51:58;15.83;;;8.43;;
19804;SDS011;10062;51.052;13.756;2024-01-07T05:54:29;15.60;;;8.43;;
19804;SDS011;10062;51.052;13.756;2024-01-07T05:57:03;17.67;;;8.23;;
19804;SDS011;10062;51.052;13.756;2024-01-07T05:59:35;16.20;;;7.90;;
19804;SDS011;10062;51.052;13.756;2024-01-07T06:02:07;20.70;;;8.67;;
19804;SDS011;10062;51.052;13.756;2024-01-07T06:04:38;16.60;;;7.53;;
19804;SDS011;10062;51.052;13.756;2024-01-07T06:07:12;11.47;;;6.13;;
19804;SDS011;10062;51.052;13.756;2024-01-07T06:09:43;14.37;;;6.70;;
19804;SDS011;10062;51.052;13.756;2024-01-07T06:12:16;17.37;;;7.33;;
19804;SDS011;10062;51.052;13.756;2024-01-07T06:14:48;17.43;;;6.37;;
19804;SDS011;10062;51.052;13.756;2024-01-07T06:17:20;12.57;;;6.80;;
19804;SDS011;10062;51.052;13.756;2024-01-07T06:19:51;14.47;;;7.53;;
19804;SDS011;10062;51.052;13.756;2024-01-07T06:22:23;14.37;;;7.07;;
19804;SDS011;10062;51.052;13.756;2024-01-07T06:24:55;11.57;;;6.27;;
19804;SDS011;10062;51.052;13.756;2024-01-07T06:27:28;16.77;;;7.90;;
19804;SDS011;10062;51.052;13.756;2024-01-07T06:29:59;14.30;;;7.27;;
19804;SDS011;10062;51.052;13.756;2024-01-07T06:32:31;16.87;;;7.93;;
19804;SDS011;10062;51.052;13.756;2024-01-07T06:35:03;11.07;;;6.07;;
19804;SDS011;10062;51.052;13.756;2024-01-07T06:37:35;11.47;;;6.67;;
19804;SDS011;10062;51.052;13.756;2024-01-07T06:40:07;15.03;;;5.33;;
19804;SDS011;10062;51.052;13.756;2024-01-07T06:42:42;13.77;;;6.37;;
19804;SDS011;10062;51.052;13.756;2024-01-07T06:45:14;6.70;;;3.80;;
19804;SDS011;10062;51.052;13.756;2024-01-07T06:47:47;10.47;;;5.20;;
19804;SDS011;10062;51.052;13.756;2024-01-07T06:50:18;15.53;;;6.57;;
19804;SDS011;10062;51.052;13.756;2024-01-07T06:52:51;8.60;;;4.23;;
19804;SDS011;10062;51.052;13.756;2024-01-07T06:55:22;10.50;;;5.23;;
19804;SDS011;10062;51.052;13.756;2024-01-07T06:57:55;13.40;;;6.13;;
19804;SDS011;10062;51.052;13.756;2024-01-07T07:00:27;10.73;;;5.13;;
19804;SDS011;10062;51.052;13.756;2024-01-07T07:02:58;12.90;;;6.00;;
19804;SDS011;10062;51.052;13.756;2024-01-07T07:05:30;14.07;;;6.73;;
19804;SDS011;10062;51.052;13.756;2024-01-07T07:08:02;11.60;;;6.03;;
19804;SDS011;10062;51.052;13.756;2024-01-07T07:10:34;8.70;;;4.77;;
19804;SDS011;10062;51.052;13.756;2024-01-07T07:13:07;12.07;;;6.10;;
19804;SDS011;10062;51.052;13.756;2024-01-07T07:15:39;10.33;;;5.03;;
19804;SDS011;10062;51.052;13.756;2024-01-07T07:18:11;13.63;;;5.37;;
19804;SDS011;10062;51.052;13.756;2024-01-07T07:20:43;10.70;;;4.63;;
19804;SDS011;10062;51.052;13.756;2024-01-07T07:23:15;11.33;;;5.73;;
19804;SDS011;10062;51.052;13.756;2024-01-07T07:25:46;14.63;;;4.67;;
19804;SDS011;10062;51.052;13.756;2024-01-07T07:28:19;11.30;;;4.73;;
19804;SDS011;10062;51.052;13.756;2024-01-07T07:30:51;10.67;;;5.27;;
19804;SDS011;10062;51.052;13.756;2024-01-07T07:33:23;8.63;;;4.80;;
19804;SDS011;10062;51.052;13.756;2024-01-07T07:35:55;10.13;;;4.60;;
19804;SDS011;10062;51.052;13.756;2024-01-07T07:38:26;8.87;;;4.00;;
19804;SDS011;10062;51.052;13.756;2024-01-07T07:40:58;9.43;;;4.93;;
19804;SDS011;10062;51.052;13.756;2024-01-07T07:43:32;9.77;;;4.53;;
19804;SDS011;10062;51.052;13.756;2024-01-07T07:46:05;15.93;;;3.90;;
19804;SDS011;10062;51.052;13.756;2024-01-07T07:48:37;10.60;;;4.40;;
19804;SDS011;10062;51.052;13.756;2024-01-07T07:51:08;7.07;;;4.03;;
19804;SDS011;10062;51.052;13.756;2024-01-07T07:53:40;12.43;;;4.03;;
19804;SDS011;10062;51.052;13.756;2024-01-07T07:56:12;7.30;;;4.00;;
19804;SDS011;10062;51.052;13.756;2024-01-07T07:58:45;11.13;;;5.30;;
19804;SDS011;10062;51.052;13.756;2024-01-07T08:01:17;9.80;;;5.10;;
19804;SDS011;10062;51.052;13.756;2024-01-07T08:03:49;9.97;;;4.10;;
19804;SDS011;10062;51.052;13.756;2024-01-07T08:06:21;10.87;;;4.20;;
19804;SDS011;10062;51.052;13.756;2024-01-07T08:08:52;12.20;;;5.40;;
19804;SDS011;10062;51.052;13.756;2024-01-07T08:11:25;8.80;;;4.60;;
19804;SDS011;10062;51.052;13.756;2024-01-07T08:13:58;8.40;;;3.77;;
19804;SDS011;10062;51.052;13.756;2024-01-07T08:16:31;8.87;;;4.17;;
19804;SDS011;10062;51.052;13.756;2024-01-07T08:19:03;8.67;;;4.50;;
19804;SDS011;10062;51.052;13.756;2024-01-07T08:21:38;8.23;;;3.27;;
19804;SDS011;10062;51.052;13.756;2024-01-07T08:24:09;4.53;;;2.40;;
19804;SDS011;10062;51.052;13.756;2024-01-07T08:26:41;6.30;;;3.40;;
19804;SDS011;10062;51.052;13.756;2024-01-07T08:29:14;2.43;;;1.43;;
19804;SDS011;10062;51.052;13.756;2024-01-07T08:31:46;8.03;;;2.83;;
19804;SDS011;10062;51.052;13.756;2024-01-07T08:34:17;6.47;;;3.17;;
19804;SDS011;10062;51.052;13.756;2024-01-07T08:36:49;7.73;;;3.13;;
19804;SDS011;10062;51.052;13.756;2024-01-07T08:39:21;5.13;;;2.70;;
19804;SDS011;10062;51.052;13.756;2024-01-07T08:41:52;5.77;;;2.77;;
19804;SDS011;10062;51.052;13.756;2024-01-07T08:44:25;8.53;;;3.37;;
19804;SDS011;10062;51.052;13.756;2024-01-07T08:46:58;8.00;;;3.37;;
19804;SDS011;10062;51.052;13.756;2024-01-07T08:49:30;9.00;;;2.97;;
19804;SDS011;10062;51.052;13.756;2024-01-07T08:52:03;7.90;;;3.63;;
19804;SDS011;10062;51.052;13.756;2024-01-07T08:54:35;4.63;;;2.77;;
19804;SDS011;10062;51.052;13.756;2024-01-07T08:57:06;7.63;;;3.27;;
19804;SDS011;10062;51.052;13.756;2024-01-07T08:59:40;7.63;;;3.60;;
19804;SDS011;10062;51.052;13.756;2024-01-07T09:02:12;7.10;;;3.37;;
19804;SDS011;10062;51.052;13.756;2024-01-07T09:04:44;5.77;;;2.73;;
19804;SDS011;10062;51.052;13.756;2024-01-07T09:07:16;5.40;;;3.30;;
19804;SDS011;10062;51.052;13.756;2024-01-07T09:09:49;9.03;;;3.63;;
19804;SDS011;10062;51.052;13.756;2024-01-07T09:12:21;6.77;;;3.03;;
19804;SDS011;10062;51.052;13.756;2024-01-07T09:14:54;6.03;;;2.97;;
19804;SDS011;10062;51.052;13.756;2024-01-07T09:17:26;5.53;;;3.17;;
19804;SDS011;10062;51.052;13.756;2024-01-07T09:19:58;8.83;;;3.47;;
19804;SDS011;10062;51.052;13.756;2024-01-07T09:22:30;5.33;;;3.17;;
19804;SDS011;10062;51.052;13.756;2024-01-07T09:25:02;7.10;;;2.87;;
19804;SDS011;10062;51.052;13.756;2024-01-07T09:27:33;6.73;;;2.83;;
19804;SDS011;10062;51.052;13.756;2024-01-07T09:30:07;6.20;;;2.97;;
19804;SDS011;10062;51.052;13.756;2024-01-07T09:32:40;21.17;;;3.23;;
19804;SDS011;10062;51.052;13.756;2024-01-07T09:35:12;8.53;;;3.80;;
19804;SDS011;10062;51.052;13.756;2024-01-07T09:37:44;7.73;;;4.03;;
19804;SDS011;10062;51.052;13.756;2024-01-07T09:40:17;4.83;;;2.53;;
19804;SDS011;10062;51.052;13.756;2024-01-07T09:42:49;7.30;;;3.43;;
19804;SDS011;10062;51.052;13.756;2024-01-07T09:45:22;6.17;;;3.23;;
19804;SDS011;10062;51.052;13.756;2024-01-07T09:47:55;6.57;;;3.80;;
19804;SDS011;10062;51.052;13.756;2024-01-07T09:50:27;5.53;;;3.20;;
19804;SDS011;10062;51.052;13.756;2024-01-07T09:52:58;6.87;;;2.97;;
19804;SDS011;10062;51.052;13.756;2024-01-07T09:55:35;5.40;;;2.97;;
19804;SDS011;10062;51.052;13.756;2024-01-07T09:58:12;6.00;;;2.90;;
19804;SDS011;10062;51.052;13.756;2024-01-07T10:00:45;7.20;;;3.97;;
19804;SDS011;10062;51.052;13.756;2024-01-07T10:03:17;6.70;;;3.50;;
19804;SDS011;10062;51.052;13.756;2024-01-07T10:05:49;5.87;;;3.07;;
19804;SDS011;10062;51.052;13.756;2024-01-07T10:08:20;9.20;;;3.70;;
19804;SDS011;10062;51.052;13.756;2024-01-07T10:10:52;5.57;;;3.33;;
19804;SDS011;10062;51.052;13.756;2024-01-07T10:13:24;7.10;;;3.60;;
19804;SDS011;10062;51.052;13.756;2024-01-07T10:15:57;6.30;;;2.90;;
19804;SDS011;10062;51.052;13.756;2024-01-07T10:18:30;7.30;;;3.03;;
19804;SDS011;10062;51.052;13.756;2024-01-07T10:21:07;6.27;;;3.60;;
19804;SDS011;10062;51.052;13.756;2024-01-07T10:24:16;7.80;;;3.17;;
19804;SDS011;10062;51.052;13.756;2024-01-07T10:26:47;6.57;;;3.80;;
19804;SDS011;10062;51.052;13.756;2024-01-07T10:29:19;5.73;;;2.77;;
19804;SDS011;10062;51.052;13.756;2024-01-07T10:31:52;7.07;;;3.33;;
19804;SDS011;10062;51.052;13.756;2024-01-07T10:34:27;8.03;;;3.50;;
19804;SDS011;10062;51.052;13.756;2024-01-07T10:37:02;7.23;;;3.73;;
19804;SDS011;10062;51.052;13.756;2024-01-07T10:39:35;8.07;;;2.90;;
19804;SDS011;10062;51.052;13.756;2024-01-07T10:42:07;6.30;;;2.80;;
19804;SDS011;10062;51.052;13.756;2024-01-07T10:44:40;5.07;;;2.73;;
19804;SDS011;10062;51.052;13.756;2024-01-07T10:47:13;6.83;;;3.90;;
19804;SDS011;10062;51.052;13.756;2024-01-07T10:49:45;6.30;;;2.87;;
19804;SDS011;10062;51.052;13.756;2024-01-07T10:52:21;6.30;;;3.10;;
19804;SDS011;10062;51.052;13.756;2024-01-07T10:54:55;5.77;;;3.23;;
19804;SDS011;10062;51.052;13.756;2024-01-07T10:57:31;5.30;;;3.00;;
19804;SDS011;10062;51.052;13.756;2024-01-07T11:00:11;5.03;;;2.90;;
19804;SDS011;10062;51.052;13.756;2024-01-07T11:02:55;5.20;;;2.43;;
19804;SDS011;10062;51.052;13.756;2024-01-07T11:05:31;6.20;;;3.40;;
19804;SDS011;10062;51.052;13.756;2024-01-07T11:08:06;7.77;;;3.53;;
19804;SDS011;10062;51.052;13.756;2024-01-07T11:10:45;5.33;;;2.93;;
19804;SDS011;10062;51.052;13.756;2024-01-07T11:13:32;7.60;;;3.37;;
19804;SDS011;10062;51.052;13.756;2024-01-07T11:16:05;5.97;;;2.60;;
19804;SDS011;10062;51.052;13.756;2024-01-07T11:18:45;5.67;;;2.93;;
19804;SDS011;10062;51.052;13.756;2024-01-07T11:21:21;2.97;;;1.80;;
19804;SDS011;10062;51.052;13.756;2024-01-07T11:23:54;2.77;;;2.00;;
19804;SDS011;10062;51.052;13.756;2024-01-07T11:26:28;5.13;;;2.27;;
19804;SDS011;10062;51.052;13.756;2024-01-07T11:29:00;8.03;;;3.50;;
19804;SDS011;10062;51.052;13.756;2024-01-07T11:31:44;7.63;;;2.73;;
19804;SDS011;10062;51.052;13.756;2024-01-07T11:37:13;3.20;;;2.07;;
19804;SDS011;10062;51.052;13.756;2024-01-07T11:39:45;5.70;;;2.40;;
19804;SDS011;10062;51.052;13.756;2024-01-07T11:42:18;5.17;;;2.30;;
19804;SDS011;10062;51.052;13.756;2024-01-07T11:44:51;5.27;;;2.40;;
19804;SDS011;10062;51.052;13.756;2024-01-07T11:47:23;7.70;;;3.30;;
19804;SDS011;10062;51.052;13.756;2024-01-07T11:49:59;4.43;;;2.80;;
19804;SDS011;10062;51.052;13.756;2024-01-07T11:52:32;6.23;;;2.43;;
19804;SDS011;10062;51.052;13.756;2024-01-07T11:55:06;5.30;;;2.37;;
19804;SDS011;10062;51.052;13.756;2024-01-07T11:57:39;4.67;;;2.40;;
19804;SDS011;10062;51.052;13.756;2024-01-07T12:00:13;7.50;;;2.73;;
19804;SDS011;10062;51.052;13.756;2024-01-07T12:02:45;5.13;;;2.67;;
19804;SDS011;10062;51.052;13.756;2024-01-07T12:05:18;5.70;;;3.17;;
19804;SDS011;10062;51.052;13.756;2024-01-07T12:07:50;5.43;;;2.83;;
19804;SDS011;10062;51.052;13.756;2024-01-07T12:10:22;6.73;;;2.90;;
19804;SDS011;10062;51.052;13.756;2024-01-07T12:12:54;5.53;;;2.47;;
19804;SDS011;10062;51.052;13.756;2024-01-07T12:15:27;7.53;;;2.23;;
19804;SDS011;10062;51.052;13.756;2024-01-07T12:17:59;6.53;;;3.00;;
19804;SDS011;10062;51.052;13.756;2024-01-07T12:20:33;4.77;;;2.50;;
19804;SDS011;10062;51.052;13.756;2024-01-07T12:23:05;5.13;;;2.70;;
19804;SDS011;10062;51.052;13.756;2024-01-07T12:25:38;3.87;;;2.37;;
19804;SDS011;10062;51.052;13.756;2024-01-07T12:28:09;5.23;;;2.60;;
19804;SDS011;10062;51.052;13.756;2024-01-07T12:30:41;4.47;;;2.30;;
19804;SDS011;10062;51.052;13.756;2024-01-07T12:33:15;5.63;;;2.13;;
19804;SDS011;10062;51.052;13.756;2024-01-07T12:35:50;7.20;;;2.70;;
19804;SDS011;10062;51.052;13.756;2024-01-07T12:38:23;7.40;;;3.83;;
19804;SDS011;10062;51.052;13.756;2024-01-07T12:40:55;2.87;;;1.90;;
19804;SDS011;10062;51.052;13.756;2024-01-07T12:43:27;4.90;;;2.63;;
19804;SDS011;10062;51.052;13.756;2024-01-07T12:45:59;3.93;;;2.80;;
19804;SDS011;10062;51.052;13.756;2024-01-07T12:48:34;4.17;;;1.97;;
19804;SDS011;10062;51.052;13.756;2024-01-07T12:51:07;3.63;;;1.90;;
19804;SDS011;10062;51.052;13.756;2024-01-07T12:53:39;4.50;;;2.63;;
19804;SDS011;10062;51.052;13.756;2024-01-07T12:56:10;3.90;;;1.90;;
19804;SDS011;10062;51.052;13.756;2024-01-07T12:58:43;5.60;;;2.70;;
19804;SDS011;10062;51.052;13.756;2024-01-07T13:01:15;5.07;;;2.37;;
19804;SDS011;10062;51.052;13.756;2024-01-07T13:03:46;9.60;;;3.77;;
19804;SDS011;10062;51.052;13.756;2024-01-07T13:06:20;5.57;;;1.83;;
19804;SDS011;10062;51.052;13.756;2024-01-07T13:08:52;3.77;;;2.00;;
19804;SDS011;10062;51.052;13.756;2024-01-07T13:11:24;5.40;;;2.53;;
19804;SDS011;10062;51.052;13.756;2024-01-07T13:13:56;4.73;;;2.50;;
19804;SDS011;10062;51.052;13.756;2024-01-07T13:16:30;4.63;;;2.40;;
19804;SDS011;10062;51.052;13.756;2024-01-07T13:19:02;3.37;;;1.87;;
19804;SDS011;10062;51.052;13.756;2024-01-07T13:21:36;2.67;;;1.63;;
19804;SDS011;10062;51.052;13.756;2024-01-07T13:24:09;3.13;;;1.80;;
19804;SDS011;10062;51.052;13.756;2024-01-07T13:26:41;3.70;;;2.00;;
19804;SDS011;10062;51.052;13.756;2024-01-07T13:29:13;3.23;;;1.40;;
19804;SDS011;10062;51.052;13.756;2024-01-07T13:31:45;3.70;;;2.17;;
19804;SDS011;10062;51.052;13.756;2024-01-07T13:34:17;4.27;;;1.87;;
19804;SDS011;10062;51.052;13.756;2024-01-07T13:36:50;5.67;;;2.03;;
19804;SDS011;10062;51.052;13.756;2024-01-07T13:39:22;6.70;;;2.63;;
19804;SDS011;10062;51.052;13.756;2024-01-07T13:41:54;5.77;;;2.93;;
19804;SDS011;10062;51.052;13.756;2024-01-07T13:44:25;7.00;;;3.23;;
19804;SDS011;10062;51.052;13.756;2024-01-07T13:46:57;7.87;;;2.80;;
19804;SDS011;10062;51.052;13.756;2024-01-07T13:49:28;4.77;;;2.60;;
19804;SDS011;10062;51.052;13.756;2024-01-07T13:52:01;2.87;;;2.03;;
19804;SDS011;10062;51.052;13.756;2024-01-07T13:54:33;3.50;;;2.23;;
19804;SDS011;10062;51.052;13.756;2024-01-07T13:57:05;6.00;;;2.60;;
19804;SDS011;10062;51.052;13.756;2024-01-07T13:59:37;4.40;;;2.30;;
19804;SDS011;10062;51.052;13.756;2024-01-07T14:02:08;5.37;;;2.47;;
19804;SDS011;10062;51.052;13.756;2024-01-07T14:04:41;5.80;;;2.60;;
19804;SDS011;10062;51.052;13.756;2024-01-07T14:07:14;4.43;;;2.23;;
19804;SDS011;10062;51.052;13.756;2024-01-07T14:09:45;4.87;;;2.27;;
19804;SDS011;10062;51.052;13.756;2024-01-07T14:12:17;4.23;;;2.37;;
19804;SDS011;10062;51.052;13.756;2024-01-07T14:14:49;4.20;;;2.20;;
19804;SDS011;10062;51.052;13.756;2024-01-07T14:17:21;3.80;;;2.00;;
19804;SDS011;10062;51.052;13.756;2024-01-07T14:19:52;2.43;;;1.57;;
19804;SDS011;10062;51.052;13.756;2024-01-07T14:22:25;5.80;;;2.60;;
19804;SDS011;10062;51.052;13.756;2024-01-07T14:24:59;3.33;;;1.90;;
19804;SDS011;10062;51.052;13.756;2024-01-07T14:27:31;3.13;;;1.60;;
19804;SDS011;10062;51.052;13.756;2024-01-07T14:30:02;2.97;;;1.40;;
19804;SDS011;10062;51.052;13.756;2024-01-07T14:32:35;3.00;;;1.80;;
19804;SDS011;10062;51.052;13.756;2024-01-07T14:35:07;6.77;;;2.30;;
19804;SDS011;10062;51.052;13.756;2024-01-07T14:37:41;2.80;;;1.80;;
19804;SDS011;10062;51.052;13.756;2024-01-07T14:40:12;5.30;;;2.67;;
19804;SDS011;10062;51.052;13.756;2024-01-07T14:42:44;5.90;;;2.57;;
19804;SDS011;10062;51.052;13.756;2024-01-07T14:45:16;4.93;;;2.30;;
19804;SDS011;10062;51.052;13.756;2024-01-07T14:47:48;4.07;;;2.40;;
19804;SDS011;10062;51.052;13.756;2024-01-07T14:50:20;4.87;;;2.27;;
19804;SDS011;10062;51.052;13.756;2024-01-07T14:52:53;1.90;;;1.20;;
19804;SDS011;10062;51.052;13.756;2024-01-07T14:55:25;3.67;;;1.73;;
19804;SDS011;10062;51.052;13.756;2024-01-07T14:57:57;5.90;;;2.33;;